Aviation Digital Data Service (ADDS)

Output produced by METARs form (1526 UTC 19 January 2018)
found at http://aviationweather.gov/adds/metars/
 
KDFW 191446Z 1915/2018 18009KT P6SM BKN018 
     FM191900 18017KT P6SM SCT025 
     FM200300 17015KT P6SM BKN025 
     FM200800 17013KT 5SM BR BKN011